Time;durP1;ratioP1;P1;durP2;ratioP2;P2;SDS_P1;SDS_P2;PMS_P1;PMS_P2;Temp;Humidity;BMP_temperature;BMP_pressure;BME280_temperature;BME280_humidity;BME280_pressure;Samples;Min_cycle;Max_cycle;Signal;HPM_P1;HPM_P2
2022/11/14 00:00:02;;;;;;;6.10;5.50;;;7.70;71.90;;;;;;5064903;28;20458;-74
2022/11/14 00:02:28;;;;;;;6.15;5.55;;;7.70;71.60;;;;;;5063912;28;20446;-75
2022/11/14 00:04:57;;;;;;;5.90;5.40;;;7.70;71.40;;;;;;5063343;28;20442;-74
2022/11/14 00:07:23;;;;;;;5.50;5.10;;;7.70;71.50;;;;;;5059853;28;20449;-74
2022/11/14 00:09:50;;;;;;;6.10;5.60;;;7.70;70.50;;;;;;5056657;28;20447;-73
2022/11/14 00:12:17;;;;;;;5.80;5.30;;;7.70;69.80;;;;;;5060415;28;20518;-73
2022/11/14 00:14:43;;;;;;;5.70;5.20;;;7.80;69.50;;;;;;5062653;28;20489;-73
2022/11/14 00:17:10;;;;;;;6.57;5.82;;;7.80;69.70;;;;;;5054665;28;20426;-74
2022/11/14 00:19:37;;;;;;;5.75;5.25;;;7.80;70.00;;;;;;5063197;28;20480;-73
2022/11/14 00:22:05;;;;;;;6.10;5.60;;;7.80;70.40;;;;;;5062830;28;20466;-73
2022/11/14 00:24:32;;;;;;;6.18;5.68;;;7.80;70.90;;;;;;5063205;28;20927;-74
2022/11/14 00:26:59;;;;;;;5.93;5.43;;;7.80;71.00;;;;;;5064370;28;20439;-74
2022/11/14 00:29:26;;;;;;;6.50;6.00;;;7.80;71.40;;;;;;5058805;28;20916;-74
2022/11/14 00:31:53;;;;;;;6.10;5.60;;;7.70;71.90;;;;;;5059911;28;20450;-73
2022/11/14 00:34:19;;;;;;;5.60;5.10;;;7.70;72.20;;;;;;5059292;28;20453;-75
2022/11/14 00:36:46;;;;;;;6.57;6.00;;;7.70;72.50;;;;;;5064794;28;20438;-74
2022/11/14 00:39:15;;;;;;;6.40;5.90;;;7.70;72.80;;;;;;5059965;28;20435;-74
2022/11/14 00:41:42;;;;;;;5.88;5.38;;;7.60;73.00;;;;;;5062280;28;20438;-74
2022/11/14 00:44:10;;;;;;;5.93;5.43;;;7.60;72.80;;;;;;5061788;28;20441;-73
2022/11/14 00:46:37;;;;;;;6.70;6.20;;;7.60;73.30;;;;;;5063906;28;20508;-74
2022/11/14 00:49:04;;;;;;;6.40;5.90;;;7.60;74.10;;;;;;5066492;28;20430;-75
2022/11/14 00:51:31;;;;;;;6.57;5.70;;;7.50;74.70;;;;;;5079303;28;20451;-74
2022/11/14 00:53:58;;;;;;;6.15;5.55;;;7.50;74.60;;;;;;5065678;28;20443;-74
2022/11/14 00:56:26;;;;;;;5.80;5.40;;;7.50;74.20;;;;;;5059629;28;20503;-74
2022/11/14 00:58:52;;;;;;;6.90;6.00;;;7.40;74.20;;;;;;5063304;28;20494;-73
2022/11/14 01:01:19;;;;;;;6.15;5.65;;;7.40;74.20;;;;;;5064007;28;20813;-74
2022/11/14 01:03:48;;;;;;;6.10;5.60;;;7.40;74.40;;;;;;5064028;28;20431;-74
2022/11/14 01:06:15;;;;;;;6.43;5.82;;;7.40;74.50;;;;;;5060639;28;20439;-73
2022/11/14 01:08:42;;;;;;;5.57;5.17;;;7.30;74.60;;;;;;5051203;28;20828;-73
2022/11/14 01:11:11;;;;;;;5.55;5.15;;;7.30;74.70;;;;;;5062680;28;20755;-73
2022/11/14 01:13:39;;;;;;;6.40;5.80;;;7.30;75.10;;;;;;5065464;28;20507;-74
2022/11/14 01:16:07;;;;;;;6.05;5.55;;;7.20;75.40;;;;;;5068841;28;20489;-73
2022/11/14 01:18:34;;;;;;;6.07;5.57;;;7.20;75.60;;;;;;5073703;28;20434;-74
2022/11/14 01:21:04;;;;;;;5.90;5.40;;;7.10;76.00;;;;;;5071518;28;20435;-73
2022/11/14 01:23:31;;;;;;;6.20;5.70;;;7.10;76.30;;;;;;5067505;28;20431;-74
2022/11/14 01:26:02;;;;;;;5.90;5.40;;;7.10;76.80;;;;;;5062701;28;20445;-74
2022/11/14 01:28:32;;;;;;;6.50;6.00;;;7.00;76.40;;;;;;5065185;28;20972;-74
2022/11/14 01:31:10;;;;;;;6.30;5.80;;;7.00;76.10;;;;;;5062027;28;20455;-73
2022/11/14 01:33:36;;;;;;;6.78;6.07;;;7.00;77.00;;;;;;5056682;28;20881;-74
2022/11/14 01:36:04;;;;;;;6.00;5.50;;;6.90;77.00;;;;;;5063382;28;20442;-73
2022/11/14 01:38:30;;;;;;;6.20;5.70;;;6.90;77.50;;;;;;5056323;28;20547;-74
2022/11/14 01:40:57;;;;;;;6.95;6.25;;;6.90;77.80;;;;;;5062655;28;20458;-75
2022/11/14 01:43:30;;;;;;;7.00;6.30;;;6.80;78.30;;;;;;5063961;28;20487;-73
2022/11/14 01:46:00;;;;;;;6.25;5.75;;;6.80;78.50;;;;;;5061643;28;20468;-73
2022/11/14 01:48:37;;;;;;;6.95;6.35;;;6.80;78.80;;;;;;5059686;28;20431;-74
2022/11/14 01:51:13;;;;;;;6.47;5.97;;;6.80;79.10;;;;;;5047400;28;20472;-74
2022/11/14 01:53:40;;;;;;;7.22;6.05;;;6.80;79.20;;;;;;5057949;28;20466;-73
2022/11/14 01:56:09;;;;;;;6.97;6.28;;;6.80;79.00;;;;;;5063548;28;20450;-73
2022/11/14 01:58:39;;;;;;;7.85;7.15;;;6.70;79.00;;;;;;5059764;28;20432;-73
2022/11/14 02:01:06;;;;;;;6.40;5.80;;;6.70;79.00;;;;;;5056710;28;20435;-74
2022/11/14 02:03:38;;;;;;;6.50;5.90;;;6.70;79.00;;;;;;5054999;28;20446;-74
2022/11/14 02:06:08;;;;;;;6.40;5.90;;;6.70;79.10;;;;;;5064711;28;20431;-74
2022/11/14 02:08:36;;;;;;;6.70;6.10;;;6.70;80.30;;;;;;5063841;28;20480;-73
2022/11/14 02:11:03;;;;;;;6.65;6.05;;;6.60;79.60;;;;;;5053480;28;20886;-74
2022/11/14 02:13:30;;;;;;;6.60;6.00;;;6.60;79.70;;;;;;5061469;28;20806;-73
2022/11/14 02:15:57;;;;;;;6.43;5.82;;;6.60;79.50;;;;;;5061491;28;20526;-73
2022/11/14 02:18:24;;;;;;;6.40;5.90;;;6.60;80.50;;;;;;5056003;28;20509;-73
2022/11/14 02:20:52;;;;;;;6.70;6.10;;;6.60;79.10;;;;;;5064895;28;20446;-74
2022/11/14 02:23:25;;;;;;;6.57;5.83;;;6.60;78.80;;;;;;5064929;28;20438;-73
2022/11/14 02:25:52;;;;;;;6.75;6.15;;;6.50;78.80;;;;;;5066620;28;20425;-74
2022/11/14 02:28:20;;;;;;;6.32;5.72;;;6.50;78.70;;;;;;5072082;28;20436;-74
2022/11/14 02:30:47;;;;;;;6.90;6.20;;;6.40;78.70;;;;;;5070100;28;20435;-74
2022/11/14 02:33:15;;;;;;;6.50;6.00;;;6.40;79.10;;;;;;5066960;28;20456;-73
2022/11/14 02:35:42;;;;;;;6.97;6.38;;;6.40;79.60;;;;;;5071522;28;20542;-73
2022/11/14 02:38:10;;;;;;;7.55;6.85;;;6.30;80.00;;;;;;5071131;28;20426;-74
2022/11/14 02:40:36;;;;;;;7.50;6.80;;;6.30;80.90;;;;;;5069578;28;20435;-74
2022/11/14 02:43:03;;;;;;;7.55;6.85;;;6.30;81.50;;;;;;5063063;28;20428;-74
2022/11/14 02:45:30;;;;;;;7.15;6.55;;;6.20;81.70;;;;;;5061651;28;20541;-74
2022/11/14 02:47:57;;;;;;;7.80;7.10;;;6.30;82.00;;;;;;5056812;28;20539;-75
2022/11/14 02:50:24;;;;;;;7.35;6.70;;;6.20;82.10;;;;;;5065003;28;20434;-74
2022/11/14 02:52:50;;;;;;;7.18;6.57;;;6.20;82.10;;;;;;5059813;28;20430;-74
2022/11/14 02:55:19;;;;;;;7.23;6.63;;;6.20;82.20;;;;;;5066113;28;20442;-73
2022/11/14 02:57:45;;;;;;;7.32;6.63;;;6.20;82.40;;;;;;5062778;28;20431;-73
2022/11/14 03:00:13;;;;;;;6.30;5.70;;;6.20;81.90;;;;;;5061531;28;20448;-74
2022/11/14 03:02:40;;;;;;;6.20;5.70;;;6.20;81.00;;;;;;5064961;28;20431;-74
2022/11/14 03:05:07;;;;;;;6.60;6.00;;;6.20;80.80;;;;;;5062787;28;20437;-73
2022/11/14 03:07:34;;;;;;;6.40;5.80;;;6.20;80.90;;;;;;5064651;28;20431;-73
2022/11/14 03:10:01;;;;;;;6.50;5.90;;;6.20;80.80;;;;;;5062155;28;20434;-74
2022/11/14 03:12:29;;;;;;;6.75;6.15;;;6.20;80.80;;;;;;5061541;28;20426;-74
2022/11/14 03:14:56;;;;;;;6.18;5.57;;;6.20;80.80;;;;;;5064556;28;20431;-74
2022/11/14 03:17:23;;;;;;;5.93;5.43;;;6.30;80.90;;;;;;5062477;28;20798;-74
2022/11/14 03:19:50;;;;;;;6.38;5.78;;;6.20;80.80;;;;;;5063242;28;20485;-74
2022/11/14 03:22:17;;;;;;;7.43;6.80;;;6.30;81.10;;;;;;5061973;28;20506;-73
2022/11/14 03:24:43;;;;;;;6.30;5.80;;;6.30;81.30;;;;;;5064006;28;20439;-74
2022/11/14 03:27:10;;;;;;;6.60;6.10;;;6.20;81.50;;;;;;5061996;28;20445;-73
2022/11/14 03:29:38;;;;;;;6.78;6.15;;;6.20;81.80;;;;;;5062905;28;20897;-73
2022/11/14 03:32:05;;;;;;;6.73;6.13;;;6.20;82.20;;;;;;5060276;28;20443;-74
2022/11/14 03:34:32;;;;;;;7.00;6.40;;;6.20;82.50;;;;;;5061029;28;20427;-74
2022/11/14 03:36:59;;;;;;;6.88;5.82;;;6.10;82.50;;;;;;5063454;28;20882;-73
2022/11/14 03:39:26;;;;;;;7.10;6.50;;;6.10;82.50;;;;;;5060525;28;20602;-74
2022/11/14 03:41:53;;;;;;;6.53;6.03;;;6.10;82.40;;;;;;5062625;28;20427;-73
2022/11/14 03:44:20;;;;;;;7.25;6.55;;;6.00;82.40;;;;;;5062497;28;20792;-74
2022/11/14 03:46:48;;;;;;;6.18;5.68;;;6.00;82.50;;;;;;5055193;28;20522;-74
2022/11/14 03:49:15;;;;;;;6.30;5.80;;;6.00;82.30;;;;;;5062755;28;20429;-77
2022/11/14 03:51:41;;;;;;;7.00;6.30;;;6.00;82.10;;;;;;5073060;28;20435;-74
2022/11/14 03:54:08;;;;;;;6.80;6.20;;;6.00;82.20;;;;;;5060897;28;20428;-74
2022/11/14 03:56:35;;;;;;;6.60;6.00;;;6.00;82.20;;;;;;5061464;28;20431;-74
2022/11/14 03:59:02;;;;;;;6.95;6.35;;;6.00;82.00;;;;;;5060671;28;20469;-73
2022/11/14 04:01:29;;;;;;;6.50;6.00;;;6.00;82.20;;;;;;5062651;28;20438;-73
2022/11/14 04:03:57;;;;;;;6.50;5.90;;;5.90;82.40;;;;;;5060782;28;20497;-73
2022/11/14 04:06:23;;;;;;;6.72;6.13;;;5.90;82.80;;;;;;5062673;28;20438;-74
2022/11/14 04:08:51;;;;;;;6.65;5.90;;;5.90;83.00;;;;;;5058174;28;20496;-74
2022/11/14 04:11:18;;;;;;;7.22;6.53;;;5.90;83.10;;;;;;5063235;28;20461;-74
2022/11/14 04:13:45;;;;;;;6.40;5.80;;;5.80;83.70;;;;;;5063352;28;20493;-74
2022/11/14 04:16:11;;;;;;;8.90;6.45;;;5.80;84.10;;;;;;5062337;28;20535;-74
2022/11/14 04:18:38;;;;;;;7.10;5.88;;;5.80;84.50;;;;;;5063711;28;20526;-73
2022/11/14 04:21:06;;;;;;;8.17;6.40;;;5.70;84.80;;;;;;5064515;28;20448;-73
2022/11/14 04:23:33;;;;;;;7.45;6.75;;;5.70;84.90;;;;;;5062425;28;20470;-73
2022/11/14 04:26:00;;;;;;;7.22;6.53;;;5.70;85.10;;;;;;5061344;28;21129;-74
2022/11/14 04:28:27;;;;;;;8.13;6.82;;;5.70;85.20;;;;;;5056452;28;20451;-74
2022/11/14 04:30:53;;;;;;;7.88;7.18;;;5.70;85.20;;;;;;5062993;28;20431;-74
2022/11/14 04:33:20;;;;;;;7.22;6.50;;;5.70;85.20;;;;;;5057419;28;20431;-74
2022/11/14 04:35:47;;;;;;;8.90;7.63;;;5.70;85.30;;;;;;5063369;28;20435;-74
2022/11/14 04:38:15;;;;;;;8.07;7.10;;;5.60;85.40;;;;;;5062702;28;20647;-74
2022/11/14 04:40:48;;;;;;;8.85;7.28;;;5.60;85.50;;;;;;5053860;28;20439;-74
2022/11/14 04:43:15;;;;;;;8.68;7.22;;;5.60;85.60;;;;;;5060096;28;20429;-74
2022/11/14 04:45:42;;;;;;;8.33;7.17;;;5.60;86.00;;;;;;5069796;28;20590;-74
2022/11/14 04:48:08;;;;;;;8.30;6.70;;;5.50;86.10;;;;;;5069689;28;20435;-74
2022/11/14 04:50:35;;;;;;;8.75;7.35;;;5.50;86.60;;;;;;5064116;28;20433;-74
2022/11/14 04:53:02;;;;;;;9.27;7.30;;;5.50;86.80;;;;;;5062829;28;20432;-74
2022/11/14 04:55:30;;;;;;;8.40;7.55;;;5.50;87.00;;;;;;5062361;28;20921;-73
2022/11/14 04:57:58;;;;;;;9.15;6.80;;;5.50;87.20;;;;;;5055966;28;20450;-73
2022/11/14 05:00:26;;;;;;;8.80;7.38;;;5.50;87.20;;;;;;5058554;28;20506;-73
2022/11/14 05:02:52;;;;;;;9.40;7.10;;;5.50;87.20;;;;;;5061738;28;20444;-73
2022/11/14 05:05:19;;;;;;;9.02;8.10;;;5.50;87.40;;;;;;5061381;28;20427;-74
2022/11/14 05:07:46;;;;;;;9.88;7.70;;;5.50;87.80;;;;;;5060419;28;21083;-73
2022/11/14 05:10:13;;;;;;;10.63;7.50;;;5.50;88.10;;;;;;5058340;28;20438;-74
2022/11/14 05:12:41;;;;;;;11.52;8.15;;;5.50;88.20;;;;;;5054010;28;20888;-73
2022/11/14 05:15:09;;;;;;;8.70;7.57;;;5.60;88.20;;;;;;5053460;28;20886;-74
2022/11/14 05:17:35;;;;;;;7.80;7.00;;;5.60;88.10;;;;;;5062942;28;20415;-74
2022/11/14 05:20:02;;;;;;;9.20;8.20;;;5.60;87.90;;;;;;5062035;28;20431;-74
2022/11/14 05:22:29;;;;;;;13.95;8.40;;;5.60;88.00;;;;;;5062259;28;20423;-73
2022/11/14 05:24:56;;;;;;;10.80;7.55;;;5.70;87.70;;;;;;5059805;28;20438;-73
2022/11/14 05:27:22;;;;;;;11.13;7.80;;;5.70;87.20;;;;;;5059184;28;20904;-74
2022/11/14 05:29:50;;;;;;;13.52;7.97;;;5.70;87.00;;;;;;5060527;28;20431;-73
2022/11/14 05:32:17;;;;;;;12.60;8.03;;;5.80;87.20;;;;;;5061242;28;20412;-75
2022/11/14 05:34:44;;;;;;;11.38;8.57;;;5.80;86.80;;;;;;5058882;28;20935;-73
2022/11/14 05:37:11;;;;;;;11.73;7.82;;;5.80;86.80;;;;;;5054728;28;20537;-73
2022/11/14 05:39:38;;;;;;;11.00;7.28;;;5.70;86.60;;;;;;5061699;28;20434;-72
2022/11/14 05:42:05;;;;;;;9.48;7.00;;;5.70;85.90;;;;;;5058586;28;20553;-72
2022/11/14 05:44:31;;;;;;;9.15;6.90;;;5.70;86.10;;;;;;5062561;28;20426;-74
2022/11/14 05:46:59;;;;;;;9.97;7.10;;;5.60;86.30;;;;;;5057481;28;20929;-75
2022/11/14 05:49:26;;;;;;;8.52;6.95;;;5.60;86.60;;;;;;5059961;28;20514;-75
2022/11/14 05:51:53;;;;;;;10.27;7.55;;;5.60;86.90;;;;;;5063397;28;20439;-75
2022/11/14 05:54:20;;;;;;;13.20;8.37;;;5.50;87.40;;;;;;5061655;28;20519;-75
2022/11/14 05:56:46;;;;;;;16.92;9.88;;;5.50;88.00;;;;;;5062645;28;20436;-75
2022/11/14 05:59:13;;;;;;;13.25;9.10;;;5.60;88.40;;;;;;5055603;28;20923;-73
2022/11/14 06:01:42;;;;;;;10.35;8.38;;;5.60;88.50;;;;;;5061746;28;20514;-73
2022/11/14 06:04:11;;;;;;;9.15;7.65;;;5.60;88.40;;;;;;5065446;28;20764;-73
2022/11/14 06:06:38;;;;;;;9.25;7.60;;;5.70;88.60;;;;;;5065093;28;20439;-73
2022/11/14 06:09:05;;;;;;;8.20;7.40;;;5.70;88.60;;;;;;5060401;28;20427;-74
2022/11/14 06:11:31;;;;;;;8.73;7.88;;;5.70;88.70;;;;;;5066567;28;20428;-74
2022/11/14 06:13:58;;;;;;;7.97;7.18;;;5.80;89.70;;;;;;5060723;28;20419;-76
2022/11/14 06:16:25;;;;;;;8.10;7.35;;;5.70;88.90;;;;;;5078646;28;20431;-75
2022/11/14 06:18:53;;;;;;;8.67;7.87;;;5.70;89.00;;;;;;5079549;28;20445;-74
2022/11/14 06:21:23;;;;;;;7.97;7.20;;;5.80;89.20;;;;;;5074417;28;20435;-74
2022/11/14 06:23:50;;;;;;;8.40;7.70;;;5.80;89.30;;;;;;5075538;28;20478;-74
2022/11/14 06:26:21;;;;;;;8.50;7.63;;;5.80;89.30;;;;;;5070065;28;20427;-73
2022/11/14 06:28:48;;;;;;;7.75;7.15;;;5.80;89.40;;;;;;5069243;28;20451;-73
2022/11/14 06:31:15;;;;;;;7.85;7.15;;;5.80;89.40;;;;;;5062868;28;20447;-73
2022/11/14 06:33:42;;;;;;;8.00;7.28;;;5.80;89.50;;;;;;5065222;28;20411;-73
2022/11/14 06:36:10;;;;;;;8.20;7.50;;;5.70;89.80;;;;;;5065853;28;20443;-75
2022/11/14 06:38:39;;;;;;;8.43;7.72;;;5.70;90.00;;;;;;5057690;28;21067;-74
2022/11/14 06:41:07;;;;;;;8.30;7.60;;;5.70;90.10;;;;;;5067054;28;20517;-75
2022/11/14 06:43:35;;;;;;;8.63;7.72;;;5.70;90.30;;;;;;5065045;28;20480;-74
2022/11/14 06:46:02;;;;;;;8.52;7.72;;;5.70;90.40;;;;;;5069061;28;20429;-73
2022/11/14 06:48:30;;;;;;;8.80;8.00;;;5.60;90.40;;;;;;5064711;28;20431;-73
2022/11/14 06:50:58;;;;;;;8.02;7.32;;;5.60;90.40;;;;;;5062608;28;20544;-75
2022/11/14 06:53:27;;;;;;;8.20;7.50;;;5.70;90.40;;;;;;5067109;28;20805;-75
2022/11/14 06:56:00;;;;;;;8.00;7.30;;;5.70;90.30;;;;;;5066563;28;20894;-74
2022/11/14 06:58:28;;;;;;;8.97;8.17;;;5.70;90.20;;;;;;5068678;28;21011;-75
2022/11/14 07:00:55;;;;;;;9.13;8.32;;;5.70;90.10;;;;;;5068955;28;20438;-74
2022/11/14 07:03:23;;;;;;;9.18;8.38;;;5.80;90.10;;;;;;5069788;28;20416;-74
2022/11/14 07:05:49;;;;;;;9.50;8.70;;;5.80;90.00;;;;;;5067091;28;20446;-73
2022/11/14 07:08:16;;;;;;;9.32;8.52;;;5.80;90.10;;;;;;5069493;28;20433;-73
2022/11/14 07:10:43;;;;;;;9.60;8.70;;;5.90;90.00;;;;;;5067915;28;20429;-73
2022/11/14 07:13:11;;;;;;;10.70;9.70;;;5.90;90.00;;;;;;5063837;28;20416;-74
2022/11/14 07:15:38;;;;;;;11.63;10.55;;;6.00;90.20;;;;;;5069830;28;20424;-74
2022/11/14 07:18:05;;;;;;;13.50;12.20;;;6.00;90.20;;;;;;5064440;28;20407;-73
2022/11/14 07:20:32;;;;;;;12.80;11.60;;;6.10;90.40;;;;;;5071223;28;20877;-74
2022/11/14 07:22:58;;;;;;;13.55;12.27;;;6.20;90.30;;;;;;5067302;28;20435;-73
2022/11/14 07:25:25;;;;;;;12.07;10.88;;;6.20;90.20;;;;;;5061890;28;20424;-74
2022/11/14 07:27:52;;;;;;;11.48;10.45;;;6.20;90.30;;;;;;5067074;28;20438;-73
2022/11/14 07:30:20;;;;;;;11.00;9.97;;;6.30;90.20;;;;;;5058067;28;20739;-73
2022/11/14 07:32:47;;;;;;;10.82;9.75;;;6.30;89.50;;;;;;5061307;28;20448;-74
2022/11/14 07:35:14;;;;;;;10.90;9.70;;;6.30;89.00;;;;;;5070573;28;20419;-73
2022/11/14 07:37:40;;;;;;;11.38;10.18;;;6.30;88.80;;;;;;5062915;28;20874;-74
2022/11/14 07:40:08;;;;;;;11.38;10.38;;;6.40;89.10;;;;;;5070260;28;20451;-74
2022/11/14 07:42:35;;;;;;;12.35;11.20;;;6.30;88.70;;;;;;5066684;28;20431;-73
2022/11/14 07:45:02;;;;;;;13.10;11.90;;;6.40;88.90;;;;;;5069543;28;20908;-74
2022/11/14 07:47:30;;;;;;;12.07;10.88;;;6.40;88.90;;;;;;5063174;28;20429;-74
2022/11/14 07:49:56;;;;;;;11.90;10.60;;;6.50;89.00;;;;;;5059799;28;20409;-74
2022/11/14 07:52:23;;;;;;;11.32;10.32;;;6.50;89.00;;;;;;5069511;28;20462;-73
2022/11/14 07:54:50;;;;;;;11.83;10.63;;;6.50;88.80;;;;;;5061472;28;20440;-73
2022/11/14 07:57:17;;;;;;;13.98;12.18;;;6.60;88.00;;;;;;5062110;28;20449;-73
2022/11/14 07:59:43;;;;;;;13.40;12.00;;;6.60;87.60;;;;;;5069245;28;20415;-74
2022/11/14 08:02:14;;;;;;;12.65;11.45;;;6.60;87.50;;;;;;5059991;28;20484;-73
2022/11/14 08:04:42;;;;;;;12.70;11.45;;;6.60;87.50;;;;;;5068725;28;20795;-74
2022/11/14 08:07:09;;;;;;;12.07;10.98;;;6.60;87.70;;;;;;5066266;28;20498;-74
2022/11/14 08:09:35;;;;;;;12.15;11.05;;;6.70;88.20;;;;;;5067123;28;20515;-73
2022/11/14 08:12:02;;;;;;;13.02;11.82;;;6.70;88.00;;;;;;5062804;28;20419;-74
2022/11/14 08:14:29;;;;;;;12.17;11.07;;;6.70;88.10;;;;;;5067605;28;20448;-73
2022/11/14 08:16:56;;;;;;;12.25;11.15;;;6.70;88.00;;;;;;5068121;28;20882;-74
2022/11/14 08:19:22;;;;;;;12.80;11.60;;;6.80;88.00;;;;;;5065961;28;20427;-74
2022/11/14 08:21:50;;;;;;;13.65;12.35;;;6.80;87.70;;;;;;5068844;28;20432;-74
2022/11/14 08:24:17;;;;;;;13.00;11.80;;;6.80;87.90;;;;;;5060044;28;20427;-74
2022/11/14 08:26:44;;;;;;;13.07;11.77;;;6.80;88.00;;;;;;5058054;28;20436;-74
2022/11/14 08:29:10;;;;;;;12.88;11.68;;;6.80;88.20;;;;;;5064294;28;20423;-74
2022/11/14 08:31:37;;;;;;;13.10;11.90;;;6.80;88.50;;;;;;5067747;28;20443;-73
2022/11/14 08:34:04;;;;;;;13.45;12.25;;;6.80;88.70;;;;;;5064965;28;20463;-73
2022/11/14 08:36:31;;;;;;;14.20;12.90;;;6.80;88.60;;;;;;5062854;28;20419;-74
2022/11/14 08:38:59;;;;;;;14.45;13.13;;;6.80;88.50;;;;;;5071099;28;20438;-72
2022/11/14 08:41:26;;;;;;;14.43;13.02;;;6.80;88.80;;;;;;5069471;28;20447;-73
2022/11/14 08:43:52;;;;;;;14.70;13.20;;;6.90;89.00;;;;;;5064506;28;20450;-73
2022/11/14 08:46:19;;;;;;;14.60;13.20;;;6.90;88.80;;;;;;5058670;28;20520;-73
2022/11/14 08:48:47;;;;;;;14.88;13.48;;;6.90;89.00;;;;;;5068909;28;20446;-73
2022/11/14 08:51:13;;;;;;;14.80;13.40;;;6.90;89.00;;;;;;5066137;28;20435;-73
2022/11/14 08:53:40;;;;;;;15.30;13.70;;;6.90;89.20;;;;;;5060952;28;20452;-73
2022/11/14 08:56:09;;;;;;;16.33;14.67;;;7.00;89.30;;;;;;5062152;28;20863;-75
2022/11/14 08:58:36;;;;;;;17.33;15.63;;;7.00;89.20;;;;;;5066100;28;20457;-72
2022/11/14 09:01:04;;;;;;;18.35;15.98;;;7.00;89.10;;;;;;5062793;28;20430;-73
2022/11/14 09:03:31;;;;;;;17.13;15.43;;;7.00;89.60;;;;;;5081199;28;20777;-73
2022/11/14 09:05:58;;;;;;;16.90;15.27;;;6.90;89.70;;;;;;5063566;28;20438;-73
2022/11/14 09:08:25;;;;;;;17.25;15.60;;;7.00;89.70;;;;;;5066192;28;20428;-73
2022/11/14 09:10:52;;;;;;;17.52;15.77;;;7.00;90.00;;;;;;5054774;28;20453;-73
2022/11/14 09:13:21;;;;;;;17.55;15.13;;;7.00;90.00;;;;;;5067445;28;20441;-73
2022/11/14 09:15:48;;;;;;;17.30;15.20;;;7.00;90.10;;;;;;5066072;28;20503;-73
2022/11/14 09:18:15;;;;;;;17.10;15.30;;;7.00;90.10;;;;;;5064442;28;20443;-73
2022/11/14 09:20:41;;;;;;;19.55;16.10;;;7.10;90.10;;;;;;5065619;28;20508;-74
2022/11/14 09:23:10;;;;;;;18.40;15.63;;;7.10;90.10;;;;;;5065272;28;20435;-73
2022/11/14 09:25:37;;;;;;;16.90;15.30;;;7.10;90.10;;;;;;5051426;28;20435;-74
2022/11/14 09:28:05;;;;;;;17.30;15.50;;;7.10;90.10;;;;;;5066531;28;20494;-73
2022/11/14 09:30:34;;;;;;;18.23;16.42;;;7.20;90.00;;;;;;5065327;28;20441;-73
2022/11/14 09:33:01;;;;;;;17.98;16.08;;;7.20;89.90;;;;;;5066677;28;20426;-73
2022/11/14 09:35:28;;;;;;;18.83;15.85;;;7.20;89.90;;;;;;5064043;28;20465;-73
2022/11/14 09:38:06;;;;;;;18.52;16.60;;;7.20;90.00;;;;;;5061239;28;20798;-73
2022/11/14 09:40:44;;;;;;;18.50;16.70;;;7.20;90.20;;;;;;5060945;28;20445;-74
2022/11/14 09:43:27;;;;;;;18.88;16.90;;;7.30;90.00;;;;;;5067033;28;20430;-73
2022/11/14 09:45:55;;;;;;;18.65;16.75;;;7.30;90.10;;;;;;5058929;28;20989;-73
2022/11/14 09:48:28;;;;;;;18.17;16.27;;;7.30;90.30;;;;;;5065927;28;20445;-72
2022/11/14 09:51:06;;;;;;;19.88;17.65;;;7.30;90.40;;;;;;5065775;28;20477;-72
2022/11/14 09:53:40;;;;;;;22.67;18.27;;;7.40;90.60;;;;;;5068245;28;20439;-73
2022/11/14 09:56:12;;;;;;;22.02;18.55;;;7.40;90.70;;;;;;5062296;28;20431;-73
2022/11/14 09:58:40;;;;;;;21.63;18.97;;;7.50;90.70;;;;;;5067719;28;20529;-73
2022/11/14 10:01:15;;;;;;;20.70;18.25;;;7.50;90.70;;;;;;5065810;28;20439;-73
2022/11/14 10:03:53;;;;;;;21.08;17.83;;;7.50;90.90;;;;;;5068674;28;20521;-73
2022/11/14 10:06:29;;;;;;;20.67;18.23;;;7.60;90.80;;;;;;5063544;28;20434;-74
2022/11/14 10:09:16;;;;;;;20.90;18.70;;;7.60;90.70;;;;;;5062946;28;20431;-73
2022/11/14 10:11:46;;;;;;;20.20;18.10;;;7.60;90.80;;;;;;5056690;28;20459;-73
2022/11/14 10:14:41;;;;;;;19.60;17.50;;;7.60;91.00;;;;;;5059298;28;20434;-72
2022/11/14 10:17:23;;;;;;;19.42;17.38;;;7.70;91.00;;;;;;5067277;28;20583;-73
2022/11/14 10:19:58;;;;;;;19.77;17.67;;;7.70;90.80;;;;;;5064806;28;20823;-73
2022/11/14 10:22:41;;;;;;;19.38;17.25;;;7.80;90.70;;;;;;5065323;28;20473;-73
2022/11/14 10:25:21;;;;;;;21.90;18.15;;;7.70;90.80;;;;;;5060234;28;20803;-72
2022/11/14 10:27:59;;;;;;;19.23;17.17;;;7.80;90.80;;;;;;5056086;28;20454;-73
2022/11/14 10:30:35;;;;;;;21.23;18.15;;;7.80;90.90;;;;;;5070374;28;20975;-74
2022/11/14 10:33:20;;;;;;;21.33;17.42;;;7.80;90.90;;;;;;5073071;28;20457;-74
2022/11/14 10:35:53;;;;;;;19.50;17.40;;;7.80;90.90;;;;;;5070151;28;20550;-73
2022/11/14 10:38:26;;;;;;;22.35;17.50;;;7.90;90.90;;;;;;5063167;28;20496;-75
2022/11/14 10:40:57;;;;;;;19.60;17.60;;;8.00;90.70;;;;;;5067453;28;20928;-73
2022/11/14 10:43:28;;;;;;;20.93;16.90;;;8.00;90.80;;;;;;5071697;28;20467;-75
2022/11/14 10:45:58;;;;;;;18.63;16.63;;;8.00;90.70;;;;;;5069357;28;20449;-73
2022/11/14 10:48:30;;;;;;;21.13;18.08;;;7.90;90.50;;;;;;5058128;28;20488;-73
2022/11/14 10:50:58;;;;;;;20.55;17.75;;;8.00;90.60;;;;;;5067698;28;20431;-73
2022/11/14 10:53:41;;;;;;;20.08;17.80;;;8.10;90.40;;;;;;5071390;28;20525;-73
2022/11/14 10:56:11;;;;;;;18.55;16.65;;;8.20;90.10;;;;;;5064138;28;20979;-74
2022/11/14 10:58:38;;;;;;;17.73;15.90;;;8.30;89.80;;;;;;5066841;28;22041;-74
2022/11/14 11:01:35;;;;;;;18.00;16.15;;;8.30;88.90;;;;;;5068522;28;20428;-73
2022/11/14 11:04:18;;;;;;;18.03;16.23;;;8.40;88.80;;;;;;5073124;28;20427;-73
2022/11/14 11:06:45;;;;;;;17.83;15.93;;;8.50;88.00;;;;;;5075506;28;20518;-74
2022/11/14 11:12:01;;;;;;;19.52;17.38;;;8.60;87.00;;;;;;5070635;28;20499;-73
2022/11/14 11:14:29;;;;;;;18.67;16.80;;;8.60;86.70;;;;;;5063580;28;20494;-73
2022/11/14 11:17:23;;;;;;;17.70;16.00;;;8.70;85.90;;;;;;5061731;28;20439;-75
2022/11/14 11:19:51;;;;;;;19.40;17.40;;;8.70;85.70;;;;;;5044694;28;20520;-74
2022/11/14 11:22:28;;;;;;;19.08;17.00;;;8.80;86.10;;;;;;5064707;28;20436;-74
2022/11/14 11:24:55;;;;;;;18.90;16.85;;;8.80;85.80;;;;;;5069096;28;20493;-73
2022/11/14 11:27:24;;;;;;;19.60;17.60;;;8.80;85.70;;;;;;5069140;28;20446;-73
2022/11/14 11:30:04;;;;;;;19.33;17.33;;;8.70;86.00;;;;;;5068758;28;20453;-75
2022/11/14 11:32:30;;;;;;;19.08;17.17;;;8.70;86.10;;;;;;5066311;28;20427;-74
2022/11/14 11:35:02;;;;;;;18.17;16.38;;;8.60;87.40;;;;;;5062206;28;20443;-73
2022/11/14 11:37:32;;;;;;;20.25;18.05;;;8.60;86.50;;;;;;5061246;28;20504;-74
2022/11/14 11:40:04;;;;;;;18.65;16.75;;;8.60;86.50;;;;;;5063262;28;20423;-74
2022/11/14 11:42:36;;;;;;;17.60;15.80;;;8.60;86.30;;;;;;5068351;28;20416;-75
2022/11/14 11:45:11;;;;;;;18.52;16.73;;;8.60;86.70;;;;;;5068230;28;20558;-74
2022/11/14 11:47:41;;;;;;;20.40;17.77;;;8.70;86.70;;;;;;5061416;28;20533;-75
2022/11/14 11:50:15;;;;;;;19.05;17.15;;;8.70;86.40;;;;;;5065151;28;20444;-74
2022/11/14 11:52:50;;;;;;;20.50;17.10;;;8.70;86.40;;;;;;5055095;28;20435;-73
2022/11/14 11:55:20;;;;;;;19.75;17.65;;;8.80;86.10;;;;;;5061613;28;20510;-73
2022/11/14 11:57:53;;;;;;;18.90;16.92;;;8.80;85.80;;;;;;5072351;28;20536;-75
2022/11/14 12:00:21;;;;;;;19.73;17.73;;;8.80;86.10;;;;;;5067829;28;20431;-74
2022/11/14 12:02:51;;;;;;;19.65;17.60;;;8.70;86.10;;;;;;5068432;28;21037;-76
2022/11/14 12:05:29;;;;;;;19.30;17.20;;;8.80;86.10;;;;;;5068170;28;20457;-76
2022/11/14 12:08:03;;;;;;;19.67;17.67;;;8.80;86.10;;;;;;5060489;28;20448;-76
2022/11/14 12:10:33;;;;;;;19.77;17.67;;;8.80;86.80;;;;;;5063106;28;20427;-76
2022/11/14 12:13:35;;;;;;;18.90;17.00;;;8.90;85.70;;;;;;5066224;28;20439;-75
2022/11/14 12:16:14;;;;;;;19.25;17.15;;;9.10;85.40;;;;;;5065403;28;20408;-77
2022/11/14 12:19:06;;;;;;;19.45;17.55;;;9.30;84.00;;;;;;5069267;28;20416;-76
2022/11/14 12:21:54;;;;;;;19.13;17.05;;;9.40;83.80;;;;;;5062771;28;20557;-75
2022/11/14 12:24:49;;;;;;;18.73;16.92;;;9.40;83.70;;;;;;5054884;28;20456;-75
2022/11/14 12:27:30;;;;;;;18.70;16.90;;;9.30;84.20;;;;;;5063083;28;20423;-74
2022/11/14 12:30:12;;;;;;;19.10;17.10;;;9.20;84.80;;;;;;5066996;28;21025;-75
2022/11/14 12:32:43;;;;;;;20.77;18.53;;;9.10;85.40;;;;;;5065930;28;20561;-74
2022/11/14 12:35:17;;;;;;;19.83;17.73;;;9.10;85.20;;;;;;5059023;28;20412;-74
2022/11/14 12:37:47;;;;;;;20.42;18.23;;;9.10;85.60;;;;;;5065717;28;20441;-76
2022/11/14 12:40:24;;;;;;;22.10;19.30;;;9.10;85.60;;;;;;5063462;28;20488;-75
2022/11/14 12:42:51;;;;;;;20.00;17.90;;;9.00;86.30;;;;;;5071775;28;20900;-75
2022/11/14 12:45:55;;;;;;;19.85;17.83;;;8.90;86.90;;;;;;5083692;28;20488;-75
2022/11/14 12:48:28;;;;;;;20.00;18.00;;;8.90;86.60;;;;;;5080380;28;20454;-75
2022/11/14 12:50:56;;;;;;;20.50;18.50;;;8.90;87.10;;;;;;5083689;28;20431;-76
2022/11/14 12:53:43;;;;;;;19.70;17.70;;;8.90;87.70;;;;;;5081165;28;20496;-75
2022/11/14 12:56:37;;;;;;;19.73;17.63;;;8.80;87.70;;;;;;5077546;28;20410;-75
2022/11/14 12:59:29;;;;;;;20.98;18.38;;;8.80;88.10;;;;;;5063197;28;20549;-76
2022/11/14 13:02:22;;;;;;;19.30;17.40;;;8.80;88.40;;;;;;5066163;28;20805;-75